sensor_id;sensor_type;location;lat;lon;timestamp;pressure;altitude;pressure_sealevel;temperature;humidity
61337;BME280;47212;41.326;2.104;2024-03-29T00:04:20;100056.00;;;16.13;94.43
61337;BME280;47212;41.326;2.104;2024-03-29T00:09:21;100059.56;;;16.14;94.41
61337;BME280;47212;41.326;2.104;2024-03-29T00:14:26;100043.91;;;16.14;94.68
61337;BME280;47212;41.326;2.104;2024-03-29T00:19:31;100044.72;;;16.15;94.80
61337;BME280;47212;41.326;2.104;2024-03-29T00:24:43;100041.97;;;16.15;94.43
61337;BME280;47212;41.326;2.104;2024-03-29T00:30:10;100055.50;;;16.11;94.86
61337;BME280;47212;41.326;2.104;2024-03-29T00:35:12;100033.50;;;16.03;95.14
61337;BME280;47212;41.326;2.104;2024-03-29T00:40:23;100041.38;;;15.96;96.88
61337;BME280;47212;41.326;2.104;2024-03-29T00:45:25;100047.31;;;15.89;96.68
61337;BME280;47212;41.326;2.104;2024-03-29T00:50:41;100042.28;;;15.82;97.17
61337;BME280;47212;41.326;2.104;2024-03-29T00:56:11;100045.78;;;15.74;97.53
61337;BME280;47212;41.326;2.104;2024-03-29T01:01:15;100050.72;;;15.64;98.86
61337;BME280;47212;41.326;2.104;2024-03-29T01:06:18;100056.84;;;15.60;99.04
61337;BME280;47212;41.326;2.104;2024-03-29T01:11:21;100052.16;;;15.61;100.00
61337;BME280;47212;41.326;2.104;2024-03-29T01:16:24;100039.75;;;15.64;99.87
61337;BME280;47212;41.326;2.104;2024-03-29T01:21:31;100033.31;;;15.68;99.71
61337;BME280;47212;41.326;2.104;2024-03-29T01:26:37;100020.72;;;15.67;99.11
61337;BME280;47212;41.326;2.104;2024-03-29T01:31:42;100027.34;;;15.66;99.38
61337;BME280;47212;41.326;2.104;2024-03-29T01:36:49;100020.22;;;15.65;99.71
61337;BME280;47212;41.326;2.104;2024-03-29T01:42:16;100018.63;;;15.64;100.00
61337;BME280;47212;41.326;2.104;2024-03-29T01:47:24;100018.13;;;15.62;98.99
61337;BME280;47212;41.326;2.104;2024-03-29T01:52:27;100014.75;;;15.65;99.29
61337;BME280;47212;41.326;2.104;2024-03-29T01:57:57;100010.25;;;15.69;100.00
61337;BME280;47212;41.326;2.104;2024-03-29T02:05:51;100014.47;;;15.75;100.00
61337;BME280;47212;41.326;2.104;2024-03-29T02:11:12;99999.00;;;15.79;99.09
61337;BME280;47212;41.326;2.104;2024-03-29T02:16:44;99984.97;;;15.81;98.81
61337;BME280;47212;41.326;2.104;2024-03-29T02:22:31;99985.78;;;15.81;99.45
61337;BME280;47212;41.326;2.104;2024-03-29T02:27:46;99987.41;;;15.82;97.96
61337;BME280;47212;41.326;2.104;2024-03-29T02:33:16;99990.63;;;15.84;98.80
61337;BME280;47212;41.326;2.104;2024-03-29T02:38:24;99991.25;;;15.81;98.36
61337;BME280;47212;41.326;2.104;2024-03-29T02:43:31;99980.28;;;15.81;97.35
61337;BME280;47212;41.326;2.104;2024-03-29T02:48:40;99976.09;;;15.84;97.19
61337;BME280;47212;41.326;2.104;2024-03-29T02:53:42;99982.91;;;15.86;97.23
61337;BME280;47212;41.326;2.104;2024-03-29T02:59:10;99961.94;;;15.90;96.97
61337;BME280;47212;41.326;2.104;2024-03-29T03:04:19;99954.19;;;15.92;96.72
61337;BME280;47212;41.326;2.104;2024-03-29T03:09:20;99949.19;;;15.95;96.32
61337;BME280;47212;41.326;2.104;2024-03-29T03:14:45;99950.00;;;15.95;96.62
61337;BME280;47212;41.326;2.104;2024-03-29T03:20:05;99929.34;;;15.98;96.32
61337;BME280;47212;41.326;2.104;2024-03-29T03:25:13;99932.91;;;15.98;96.43
61337;BME280;47212;41.326;2.104;2024-03-29T03:30:16;99939.69;;;16.01;96.36
61337;BME280;47212;41.326;2.104;2024-03-29T03:35:43;99936.94;;;16.01;96.77
61337;BME280;47212;41.326;2.104;2024-03-29T03:40:47;99931.28;;;15.97;96.38
61337;BME280;47212;41.326;2.104;2024-03-29T03:45:59;99921.25;;;15.92;97.10
61337;BME280;47212;41.326;2.104;2024-03-29T03:51:01;99912.03;;;15.88;97.17
61337;BME280;47212;41.326;2.104;2024-03-29T03:56:04;99921.25;;;15.92;100.00
61337;BME280;47212;41.326;2.104;2024-03-29T04:01:08;99918.81;;;15.91;97.53
61337;BME280;47212;41.326;2.104;2024-03-29T04:06:14;99908.97;;;15.90;98.14
61337;BME280;47212;41.326;2.104;2024-03-29T04:11:17;99894.94;;;15.91;98.34
61337;BME280;47212;41.326;2.104;2024-03-29T04:16:40;99896.06;;;15.90;98.29
61337;BME280;47212;41.326;2.104;2024-03-29T04:21:59;99891.69;;;15.89;98.67
61337;BME280;47212;41.326;2.104;2024-03-29T04:27:13;99906.53;;;15.88;98.40
61337;BME280;47212;41.326;2.104;2024-03-29T04:32:24;99910.41;;;15.87;99.19
61337;BME280;47212;41.326;2.104;2024-03-29T04:37:28;99896.22;;;15.85;99.76
61337;BME280;47212;41.326;2.104;2024-03-29T04:42:36;99895.09;;;15.86;100.00
61337;BME280;47212;41.326;2.104;2024-03-29T04:47:42;99882.31;;;15.82;100.00
61337;BME280;47212;41.326;2.104;2024-03-29T04:52:45;99895.22;;;15.81;100.00
61337;BME280;47212;41.326;2.104;2024-03-29T04:58:04;99881.50;;;15.81;100.00
61337;BME280;47212;41.326;2.104;2024-03-29T05:03:29;99883.75;;;15.79;100.00
61337;BME280;47212;41.326;2.104;2024-03-29T05:08:30;99871.81;;;15.75;100.00
61337;BME280;47212;41.326;2.104;2024-03-29T05:13:35;99870.34;;;15.78;100.00
61337;BME280;47212;41.326;2.104;2024-03-29T05:18:36;99866.31;;;15.75;100.00
61337;BME280;47212;41.326;2.104;2024-03-29T05:25:30;99858.41;;;15.74;100.00
61337;BME280;47212;41.326;2.104;2024-03-29T05:32:29;99861.47;;;15.72;100.00
61337;BME280;47212;41.326;2.104;2024-03-29T05:37:32;99863.72;;;15.70;100.00
61337;BME280;47212;41.326;2.104;2024-03-29T05:42:34;99868.72;;;15.68;100.00
61337;BME280;47212;41.326;2.104;2024-03-29T05:47:45;99877.25;;;15.67;100.00
61337;BME280;47212;41.326;2.104;2024-03-29T05:52:46;99865.78;;;15.65;100.00
61337;BME280;47212;41.326;2.104;2024-03-29T05:57:48;99873.72;;;15.66;100.00
61337;BME280;47212;41.326;2.104;2024-03-29T06:02:49;99871.44;;;15.68;100.00
61337;BME280;47212;41.326;2.104;2024-03-29T06:07:51;99864.84;;;15.69;100.00
61337;BME280;47212;41.326;2.104;2024-03-29T06:12:52;99862.09;;;15.69;100.00
61337;BME280;47212;41.326;2.104;2024-03-29T06:17:57;99861.47;;;15.72;100.00
61337;BME280;47212;41.326;2.104;2024-03-29T06:22:59;99866.00;;;15.77;100.00
61337;BME280;47212;41.326;2.104;2024-03-29T06:28:00;99861.50;;;15.81;100.00
61337;BME280;47212;41.326;2.104;2024-03-29T06:33:01;99876.81;;;15.82;100.00
61337;BME280;47212;41.326;2.104;2024-03-29T06:38:04;99876.19;;;15.85;100.00
61337;BME280;47212;41.326;2.104;2024-03-29T06:43:05;99893.94;;;15.87;99.97
61337;BME280;47212;41.326;2.104;2024-03-29T06:48:09;99899.94;;;15.89;99.57
61337;BME280;47212;41.326;2.104;2024-03-29T06:53:10;99897.03;;;15.95;99.74
61337;BME280;47212;41.326;2.104;2024-03-29T06:58:11;99896.41;;;15.98;99.48
61337;BME280;47212;41.326;2.104;2024-03-29T07:03:12;99902.22;;;16.05;99.21
61337;BME280;47212;41.326;2.104;2024-03-29T07:08:14;99910.31;;;16.10;99.59
61337;BME280;47212;41.326;2.104;2024-03-29T07:13:15;99908.25;;;16.15;99.42
61337;BME280;47212;41.326;2.104;2024-03-29T07:18:19;99904.03;;;16.18;99.62
61337;BME280;47212;41.326;2.104;2024-03-29T07:23:20;99900.34;;;16.22;99.22
61337;BME280;47212;41.326;2.104;2024-03-29T07:28:24;99896.47;;;16.23;98.95
61337;BME280;47212;41.326;2.104;2024-03-29T07:33:28;99894.53;;;16.24;98.82
61337;BME280;47212;41.326;2.104;2024-03-29T07:38:31;99880.47;;;16.25;98.73
61337;BME280;47212;41.326;2.104;2024-03-29T07:43:40;99880.47;;;16.34;98.65
61337;BME280;47212;41.326;2.104;2024-03-29T07:48:42;99874.34;;;16.46;97.70
61337;BME280;47212;41.326;2.104;2024-03-29T07:53:43;99877.78;;;16.51;97.42
61337;BME280;47212;41.326;2.104;2024-03-29T07:58:44;99878.59;;;16.61;97.00
61337;BME280;47212;41.326;2.104;2024-03-29T08:03:46;99889.44;;;16.66;96.69
61337;BME280;47212;41.326;2.104;2024-03-29T08:08:50;99894.78;;;16.71;95.76
61337;BME280;47212;41.326;2.104;2024-03-29T08:13:57;99891.88;;;16.67;95.71
61337;BME280;47212;41.326;2.104;2024-03-29T08:18:58;99897.19;;;16.64;95.23
61337;BME280;47212;41.326;2.104;2024-03-29T08:23:59;99898.78;;;16.65;95.53
61337;BME280;47212;41.326;2.104;2024-03-29T08:29:02;99902.53;;;16.77;94.94
61337;BME280;47212;41.326;2.104;2024-03-29T08:34:03;99915.28;;;17.16;93.58
61337;BME280;47212;41.326;2.104;2024-03-29T08:39:05;99925.94;;;17.18;93.34
61337;BME280;47212;41.326;2.104;2024-03-29T08:44:07;99922.72;;;17.07;93.31
61337;BME280;47212;41.326;2.104;2024-03-29T08:49:08;99919.28;;;17.28;92.33
61337;BME280;47212;41.326;2.104;2024-03-29T08:54:09;99917.03;;;17.38;90.95
61337;BME280;47212;41.326;2.104;2024-03-29T08:59:12;99923.00;;;17.32;91.37
61337;BME280;47212;41.326;2.104;2024-03-29T09:04:15;99922.22;;;17.23;91.83
61337;BME280;47212;41.326;2.104;2024-03-29T09:09:19;99920.59;;;17.22;92.33
61337;BME280;47212;41.326;2.104;2024-03-29T09:14:23;99918.97;;;17.20;91.83
61337;BME280;47212;41.326;2.104;2024-03-29T09:19:28;99915.41;;;17.37;91.03
61337;BME280;47212;41.326;2.104;2024-03-29T09:24:31;99941.63;;;17.43;90.39
61337;BME280;47212;41.326;2.104;2024-03-29T09:29:32;99927.38;;;17.41;90.63
61337;BME280;47212;41.326;2.104;2024-03-29T09:34:35;99918.78;;;17.43;90.55
61337;BME280;47212;41.326;2.104;2024-03-29T09:39:36;99910.56;;;17.34;90.31
61337;BME280;47212;41.326;2.104;2024-03-29T09:44:37;99898.84;;;17.55;89.96
61337;BME280;47212;41.326;2.104;2024-03-29T09:49:41;99902.78;;;17.92;87.82
61337;BME280;47212;41.326;2.104;2024-03-29T09:54:45;99898.84;;;18.31;86.46
61337;BME280;47212;41.326;2.104;2024-03-29T09:59:46;99897.34;;;18.63;84.46
61337;BME280;47212;41.326;2.104;2024-03-29T10:04:50;99901.59;;;18.52;83.91
61337;BME280;47212;41.326;2.104;2024-03-29T10:10:00;99888.63;;;18.52;83.86
61337;BME280;47212;41.326;2.104;2024-03-29T10:15:04;99888.25;;;18.62;82.48
61337;BME280;47212;41.326;2.104;2024-03-29T10:20:32;99890.94;;;18.71;81.52
61337;BME280;47212;41.326;2.104;2024-03-29T10:25:33;99878.31;;;18.70;81.79
61337;BME280;47212;41.326;2.104;2024-03-29T10:30:35;99879.34;;;18.57;81.94
61337;BME280;47212;41.326;2.104;2024-03-29T10:35:36;99878.03;;;18.63;81.63
61337;BME280;47212;41.326;2.104;2024-03-29T10:40:39;99869.22;;;18.49;83.07
61337;BME280;47212;41.326;2.104;2024-03-29T10:45:45;99878.56;;;18.35;83.94
61337;BME280;47212;41.326;2.104;2024-03-29T10:50:48;99862.66;;;18.11;84.89
61337;BME280;47212;41.326;2.104;2024-03-29T10:55:56;99864.13;;;18.09;85.31
61337;BME280;47212;41.326;2.104;2024-03-29T11:00:59;99853.09;;;18.09;85.91
61337;BME280;47212;41.326;2.104;2024-03-29T11:06:06;99844.84;;;18.09;86.35
61337;BME280;47212;41.326;2.104;2024-03-29T11:11:07;99843.84;;;18.13;86.02
61337;BME280;47212;41.326;2.104;2024-03-29T11:16:11;99837.53;;;18.13;86.15
61337;BME280;47212;41.326;2.104;2024-03-29T11:21:15;99841.00;;;18.01;86.88
61337;BME280;47212;41.326;2.104;2024-03-29T11:26:19;99854.53;;;17.86;87.06
61337;BME280;47212;41.326;2.104;2024-03-29T11:31:24;99847.97;;;17.99;87.52
61337;BME280;47212;41.326;2.104;2024-03-29T11:36:29;99842.13;;;18.30;86.03
61337;BME280;47212;41.326;2.104;2024-03-29T11:41:45;99851.00;;;18.56;84.61
61337;BME280;47212;41.326;2.104;2024-03-29T11:57:29;99848.16;;;19.19;80.49
61337;BME280;47212;41.326;2.104;2024-03-29T12:02:57;99833.00;;;19.25;80.08
61337;BME280;47212;41.326;2.104;2024-03-29T12:07:58;99831.78;;;19.01;80.20
61337;BME280;47212;41.326;2.104;2024-03-29T12:13:00;99825.50;;;19.13;80.19
61337;BME280;47212;41.326;2.104;2024-03-29T12:18:05;99827.59;;;19.28;79.11
61337;BME280;47212;41.326;2.104;2024-03-29T12:23:09;99813.94;;;19.32;78.20
61337;BME280;47212;41.326;2.104;2024-03-29T12:28:14;99825.31;;;19.30;77.10
61337;BME280;47212;41.326;2.104;2024-03-29T12:33:28;99810.16;;;19.36;77.59
61337;BME280;47212;41.326;2.104;2024-03-29T12:38:32;99808.53;;;19.48;77.53
61337;BME280;47212;41.326;2.104;2024-03-29T12:43:34;99793.47;;;19.45;77.52
61337;BME280;47212;41.326;2.104;2024-03-29T12:48:35;99788.66;;;19.42;76.83
61337;BME280;47212;41.326;2.104;2024-03-29T12:53:39;99795.53;;;19.48;76.43
61337;BME280;47212;41.326;2.104;2024-03-29T12:58:43;99781.06;;;19.27;76.55
61337;BME280;47212;41.326;2.104;2024-03-29T13:03:47;99773.69;;;19.19;77.38
61337;BME280;47212;41.326;2.104;2024-03-29T13:08:48;99760.00;;;19.34;77.23
61337;BME280;47212;41.326;2.104;2024-03-29T13:13:54;99766.09;;;19.28;77.19
61337;BME280;47212;41.326;2.104;2024-03-29T13:18:55;99753.00;;;19.25;77.12
61337;BME280;47212;41.326;2.104;2024-03-29T13:23:57;99756.44;;;19.22;76.60
61337;BME280;47212;41.326;2.104;2024-03-29T13:28:59;99727.00;;;19.14;77.44
61337;BME280;47212;41.326;2.104;2024-03-29T13:34:05;99724.72;;;19.16;76.85
61337;BME280;47212;41.326;2.104;2024-03-29T13:39:13;99714.34;;;19.00;77.18
61337;BME280;47212;41.326;2.104;2024-03-29T13:44:18;99701.47;;;19.04;77.76
61337;BME280;47212;41.326;2.104;2024-03-29T13:49:28;99703.91;;;19.18;78.09
61337;BME280;47212;41.326;2.104;2024-03-29T13:54:31;99690.00;;;19.39;77.49
61337;BME280;47212;41.326;2.104;2024-03-29T13:59:35;99692.97;;;19.34;77.48
61337;BME280;47212;41.326;2.104;2024-03-29T14:04:40;99686.31;;;19.23;77.72
61337;BME280;47212;41.326;2.104;2024-03-29T14:09:43;99685.41;;;19.19;78.20
61337;BME280;47212;41.326;2.104;2024-03-29T14:14:45;99678.84;;;19.11;78.08
61337;BME280;47212;41.326;2.104;2024-03-29T14:19:54;99673.47;;;19.15;77.66
61337;BME280;47212;41.326;2.104;2024-03-29T14:25:04;99672.06;;;19.21;77.38
61337;BME280;47212;41.326;2.104;2024-03-29T14:30:09;99659.78;;;19.18;77.32
61337;BME280;47212;41.326;2.104;2024-03-29T14:35:13;99657.81;;;19.19;76.90
61337;BME280;47212;41.326;2.104;2024-03-29T14:40:19;99652.53;;;19.26;76.61
61337;BME280;47212;41.326;2.104;2024-03-29T14:45:22;99646.31;;;19.29;75.82
61337;BME280;47212;41.326;2.104;2024-03-29T14:50:23;99641.72;;;19.33;75.70
61337;BME280;47212;41.326;2.104;2024-03-29T14:55:27;99640.66;;;19.37;75.37
61337;BME280;47212;41.326;2.104;2024-03-29T15:00:32;99624.78;;;19.47;75.23
61337;BME280;47212;41.326;2.104;2024-03-29T15:05:34;99612.03;;;19.42;74.56
61337;BME280;47212;41.326;2.104;2024-03-29T15:10:37;99605.34;;;19.43;73.94
61337;BME280;47212;41.326;2.104;2024-03-29T15:15:39;99584.19;;;19.47;72.05
61337;BME280;47212;41.326;2.104;2024-03-29T15:20:42;99569.00;;;19.53;70.32
61337;BME280;47212;41.326;2.104;2024-03-29T15:25:55;99569.00;;;19.53;68.38
61337;BME280;47212;41.326;2.104;2024-03-29T15:36:16;99540.38;;;19.46;68.40
61337;BME280;47212;41.326;2.104;2024-03-29T15:41:18;99531.09;;;19.38;68.11
61337;BME280;47212;41.326;2.104;2024-03-29T15:46:21;99531.53;;;19.40;66.46
61337;BME280;47212;41.326;2.104;2024-03-29T15:51:25;99521.50;;;19.48;65.48
61337;BME280;47212;41.326;2.104;2024-03-29T15:56:32;99502.97;;;19.60;64.79
61337;BME280;47212;41.326;2.104;2024-03-29T16:01:37;99509.19;;;19.57;62.90
61337;BME280;47212;41.326;2.104;2024-03-29T16:06:41;99489.44;;;19.55;62.90
61337;BME280;47212;41.326;2.104;2024-03-29T16:11:49;99473.91;;;19.51;62.12
61337;BME280;47212;41.326;2.104;2024-03-29T16:16:55;99489.66;;;19.50;62.37
61337;BME280;47212;41.326;2.104;2024-03-29T16:21:56;99475.75;;;19.47;63.21
61337;BME280;47212;41.326;2.104;2024-03-29T16:27:00;99472.00;;;19.39;63.83
61337;BME280;47212;41.326;2.104;2024-03-29T16:32:05;99474.81;;;19.27;64.87
61337;BME280;47212;41.326;2.104;2024-03-29T16:37:08;99463.38;;;19.13;64.44
61337;BME280;47212;41.326;2.104;2024-03-29T16:42:09;99458.78;;;19.04;65.08
61337;BME280;47212;41.326;2.104;2024-03-29T16:47:13;99446.63;;;18.93;68.86
61337;BME280;47212;41.326;2.104;2024-03-29T16:52:21;99428.75;;;18.75;71.25
61337;BME280;47212;41.326;2.104;2024-03-29T16:57:30;99425.78;;;18.56;72.28
61337;BME280;47212;41.326;2.104;2024-03-29T17:02:32;99418.25;;;18.40;74.64
61337;BME280;47212;41.326;2.104;2024-03-29T17:07:34;99434.31;;;18.26;77.13
61337;BME280;47212;41.326;2.104;2024-03-29T17:12:37;99464.69;;;18.18;79.00
61337;BME280;47212;41.326;2.104;2024-03-29T17:17:42;99472.38;;;18.12;81.17
61337;BME280;47212;41.326;2.104;2024-03-29T17:22:46;99454.47;;;18.06;82.25
61337;BME280;47212;41.326;2.104;2024-03-29T17:27:52;99468.69;;;17.96;83.25
61337;BME280;47212;41.326;2.104;2024-03-29T17:33:02;99470.19;;;17.93;84.02
61337;BME280;47212;41.326;2.104;2024-03-29T17:38:04;99475.47;;;17.86;84.05
61337;BME280;47212;41.326;2.104;2024-03-29T17:43:08;99473.81;;;17.73;87.76
61337;BME280;47212;41.326;2.104;2024-03-29T17:48:14;99472.28;;;17.63;84.66
61337;BME280;47212;41.326;2.104;2024-03-29T17:53:46;99484.91;;;17.64;85.50
61337;BME280;47212;41.326;2.104;2024-03-29T17:58:49;99464.25;;;17.58;85.10
61337;BME280;47212;41.326;2.104;2024-03-29T18:03:53;99468.81;;;17.54;85.50
61337;BME280;47212;41.326;2.104;2024-03-29T18:08:56;99473.25;;;17.46;85.88
61337;BME280;47212;41.326;2.104;2024-03-29T18:14:00;99475.97;;;17.34;86.23
61337;BME280;47212;41.326;2.104;2024-03-29T18:19:07;99509.28;;;17.33;86.46
61337;BME280;47212;41.326;2.104;2024-03-29T18:24:20;99494.72;;;17.32;87.44
61337;BME280;47212;41.326;2.104;2024-03-29T18:29:23;99485.34;;;17.33;88.68
61337;BME280;47212;41.326;2.104;2024-03-29T18:34:29;99523.03;;;17.33;89.04
61337;BME280;47212;41.326;2.104;2024-03-29T18:39:39;99537.00;;;17.28;90.11
61337;BME280;47212;41.326;2.104;2024-03-29T18:44:42;99544.84;;;17.17;89.83
61337;BME280;47212;41.326;2.104;2024-03-29T18:49:44;99559.00;;;17.07;90.27
61337;BME280;47212;41.326;2.104;2024-03-29T18:54:50;99549.66;;;16.99;91.91
61337;BME280;47212;41.326;2.104;2024-03-29T18:59:54;99509.78;;;16.93;91.51
61337;BME280;47212;41.326;2.104;2024-03-29T19:05:01;99522.38;;;16.94;91.79
61337;BME280;47212;41.326;2.104;2024-03-29T19:10:09;99539.81;;;16.98;92.57
61337;BME280;47212;41.326;2.104;2024-03-29T19:15:12;99547.38;;;17.01;92.95
61337;BME280;47212;41.326;2.104;2024-03-29T19:20:14;99538.66;;;16.99;93.22
61337;BME280;47212;41.326;2.104;2024-03-29T19:25:16;99516.41;;;16.92;97.13
61337;BME280;47212;41.326;2.104;2024-03-29T19:30:18;99516.75;;;16.91;94.29
61337;BME280;47212;41.326;2.104;2024-03-29T19:35:21;99528.53;;;16.91;93.94
61337;BME280;47212;41.326;2.104;2024-03-29T19:40:22;99558.63;;;16.87;93.46
61337;BME280;47212;41.326;2.104;2024-03-29T19:45:25;99547.50;;;16.84;93.87
61337;BME280;47212;41.326;2.104;2024-03-29T19:50:28;99554.59;;;16.85;94.01
61337;BME280;47212;41.326;2.104;2024-03-29T19:55:29;99565.66;;;16.76;93.91
61337;BME280;47212;41.326;2.104;2024-03-29T20:00:31;99539.84;;;16.69;93.66
61337;BME280;47212;41.326;2.104;2024-03-29T20:05:36;99545.66;;;16.67;93.65
61337;BME280;47212;41.326;2.104;2024-03-29T20:10:40;99545.66;;;16.67;93.71
61337;BME280;47212;41.326;2.104;2024-03-29T20:15:44;99534.81;;;16.71;93.83
61337;BME280;47212;41.326;2.104;2024-03-29T20:20:50;99538.03;;;16.73;94.11
61337;BME280;47212;41.326;2.104;2024-03-29T20:25:57;99534.00;;;16.70;93.75
61337;BME280;47212;41.326;2.104;2024-03-29T20:31:05;99536.09;;;16.65;92.96
61337;BME280;47212;41.326;2.104;2024-03-29T20:36:09;99517.72;;;16.65;93.61
61337;BME280;47212;41.326;2.104;2024-03-29T20:41:12;99536.94;;;16.65;92.75
61337;BME280;47212;41.326;2.104;2024-03-29T20:46:25;99550.34;;;16.67;94.15
61337;BME280;47212;41.326;2.104;2024-03-29T20:51:27;99561.47;;;16.70;92.99
61337;BME280;47212;41.326;2.104;2024-03-29T20:56:28;99572.13;;;16.72;92.61
61337;BME280;47212;41.326;2.104;2024-03-29T21:01:33;99533.19;;;16.70;91.81
61337;BME280;47212;41.326;2.104;2024-03-29T21:06:55;99552.91;;;16.72;91.86
61337;BME280;47212;41.326;2.104;2024-03-29T21:11:56;99552.09;;;16.71;91.71
61337;BME280;47212;41.326;2.104;2024-03-29T21:17:00;99549.03;;;16.73;91.45
61337;BME280;47212;41.326;2.104;2024-03-29T21:22:02;99528.66;;;16.74;91.19
61337;BME280;47212;41.326;2.104;2024-03-29T21:27:04;99523.16;;;16.74;91.09
61337;BME280;47212;41.326;2.104;2024-03-29T21:32:06;99535.44;;;16.76;90.66
61337;BME280;47212;41.326;2.104;2024-03-29T21:37:10;99535.09;;;16.78;90.68
61337;BME280;47212;41.326;2.104;2024-03-29T21:42:13;99525.72;;;16.79;90.47
61337;BME280;47212;41.326;2.104;2024-03-29T21:47:23;99528.94;;;16.81;90.61
61337;BME280;47212;41.326;2.104;2024-03-29T21:52:24;99556.09;;;16.82;90.23
61337;BME280;47212;41.326;2.104;2024-03-29T21:57:26;99547.69;;;16.79;88.99
61337;BME280;47212;41.326;2.104;2024-03-29T22:02:30;99557.88;;;16.78;88.82
61337;BME280;47212;41.326;2.104;2024-03-29T22:07:32;99551.59;;;16.78;88.69
61337;BME280;47212;41.326;2.104;2024-03-29T22:12:36;99557.06;;;16.78;88.80
61337;BME280;47212;41.326;2.104;2024-03-29T22:17:37;99558.88;;;16.74;88.59
61337;BME280;47212;41.326;2.104;2024-03-29T22:22:38;99566.19;;;16.70;88.32
61337;BME280;47212;41.326;2.104;2024-03-29T22:27:40;99568.44;;;16.68;88.49
61337;BME280;47212;41.326;2.104;2024-03-29T22:32:47;99577.66;;;16.63;88.35
61337;BME280;47212;41.326;2.104;2024-03-29T22:37:48;99560.22;;;16.59;88.66
61337;BME280;47212;41.326;2.104;2024-03-29T22:42:50;99553.91;;;16.59;88.73
61337;BME280;47212;41.326;2.104;2024-03-29T22:47:55;99534.69;;;16.59;88.88
61337;BME280;47212;41.326;2.104;2024-03-29T22:53:10;99536.63;;;16.58;89.27
61337;BME280;47212;41.326;2.104;2024-03-29T22:58:13;99536.97;;;16.56;89.07
61337;BME280;47212;41.326;2.104;2024-03-29T23:03:16;99532.13;;;16.53;89.48
61337;BME280;47212;41.326;2.104;2024-03-29T23:08:19;99532.31;;;16.48;89.58
61337;BME280;47212;41.326;2.104;2024-03-29T23:13:21;99539.25;;;16.46;89.91
61337;BME280;47212;41.326;2.104;2024-03-29T23:18:22;99540.72;;;16.43;90.42
61337;BME280;47212;41.326;2.104;2024-03-29T23:23:23;99535.56;;;16.42;91.25
61337;BME280;47212;41.326;2.104;2024-03-29T23:28:27;99547.19;;;16.39;91.51
61337;BME280;47212;41.326;2.104;2024-03-29T23:33:29;99531.06;;;16.37;91.31
61337;BME280;47212;41.326;2.104;2024-03-29T23:38:30;99533.78;;;16.37;91.82
61337;BME280;47212;41.326;2.104;2024-03-29T23:43:34;99541.88;;;16.34;92.12
61337;BME280;47212;41.326;2.104;2024-03-29T23:48:38;99538.53;;;16.28;91.45
61337;BME280;47212;41.326;2.104;2024-03-29T23:53:43;99540.97;;;16.21;91.19
61337;BME280;47212;41.326;2.104;2024-03-29T23:58:45;99540.69;;;16.14;90.68
